createdAt,value
2022-11-28T00:01:39.171Z,0.04
2022-11-28T00:04:09.003Z,-0.05
2022-11-28T00:06:46.777Z,-0.09
2022-11-28T00:09:16.000Z,-0.11
2022-11-28T00:11:45.917Z,-0.17
2022-11-28T00:14:15.405Z,-0.21
2022-11-28T00:16:43.599Z,-0.24
2022-11-28T00:19:12.995Z,-0.27
2022-11-28T00:21:41.892Z,-0.30
2022-11-28T00:24:10.121Z,-0.33
2022-11-28T00:26:40.768Z,-0.36
2022-11-28T00:29:10.487Z,-0.41
2022-11-28T00:31:43.152Z,-0.46
2022-11-28T00:34:13.638Z,-0.49
2022-11-28T00:36:44.187Z,-0.51
2022-11-28T00:39:13.054Z,-0.53
2022-11-28T00:41:41.519Z,-0.57
2022-11-28T00:44:09.907Z,-0.60
2022-11-28T00:46:37.783Z,-0.62
2022-11-28T00:49:05.926Z,-0.65
2022-11-28T00:51:35.450Z,-0.66
2022-11-28T00:54:05.681Z,-0.68
2022-11-28T00:56:36.688Z,-0.69
2022-11-28T00:59:05.350Z,-0.69
2022-11-28T01:01:37.500Z,-0.72
2022-11-28T01:04:08.343Z,-0.80
2022-11-28T01:06:41.554Z,-0.81
2022-11-28T01:09:13.892Z,-0.80
2022-11-28T01:11:42.859Z,-0.79
2022-11-28T01:14:13.371Z,-0.82
2022-11-28T01:16:42.065Z,-0.86
2022-11-28T01:19:10.463Z,-0.87
2022-11-28T01:21:38.533Z,-0.87
2022-11-28T01:24:06.428Z,-0.89
2022-11-28T01:26:34.262Z,-0.90
2022-11-28T01:29:02.342Z,-0.91
2022-11-28T01:31:31.056Z,-0.93
2022-11-28T01:33:59.308Z,-0.96
2022-11-28T01:36:28.004Z,-0.98
2022-11-28T01:38:55.852Z,-1.00
2022-11-28T01:41:27.415Z,-1.04
2022-11-28T01:44:06.940Z,-1.09
2022-11-28T01:46:36.179Z,-1.14
2022-11-28T01:49:22.374Z,-1.19
2022-11-28T01:51:55.848Z,-1.24
2022-11-28T01:54:26.475Z,-1.31
2022-11-28T01:57:06.421Z,-1.35
2022-11-28T01:59:39.391Z,-1.39
2022-11-28T02:02:13.541Z,-1.40
2022-11-28T02:04:42.653Z,-1.41
2022-11-28T02:07:10.908Z,-1.40
2022-11-28T02:09:38.872Z,-1.39
2022-11-28T02:12:07.058Z,-1.40
2022-11-28T02:14:55.600Z,-1.43
2022-11-28T02:17:42.819Z,-1.43
2022-11-28T02:20:29.555Z,-1.41
2022-11-28T02:23:35.191Z,-1.42
2022-11-28T02:26:31.473Z,-1.43
2022-11-28T02:29:10.655Z,-1.45
2022-11-28T02:32:14.882Z,-1.44
2022-11-28T02:34:54.825Z,-1.46
2022-11-28T02:37:27.033Z,-1.48
2022-11-28T02:40:08.928Z,-1.53
2022-11-28T02:42:52.015Z,-1.57
2022-11-28T02:45:51.127Z,-1.62
2022-11-28T02:48:44.095Z,-1.66
2022-11-28T02:51:35.883Z,-1.68
2022-11-28T02:54:06.444Z,-1.68
2022-11-28T02:56:34.400Z,-1.68
2022-11-28T02:59:02.467Z,-1.68
2022-11-28T03:01:38.458Z,-1.69
2022-11-28T03:04:47.975Z,-1.69
2022-11-28T03:07:40.399Z,-1.73
2022-11-28T03:10:19.829Z,-1.76
2022-11-28T03:13:00.935Z,-1.79
2022-11-28T03:15:41.913Z,-1.80
2022-11-28T03:18:34.355Z,-1.81
2022-11-28T03:21:43.570Z,-1.81
2022-11-28T03:24:33.353Z,-1.79
2022-11-28T03:27:10.280Z,-1.78
2022-11-28T03:29:44.524Z,-1.79
2022-11-28T03:32:20.759Z,-1.79
2022-11-28T03:34:55.862Z,-1.80
2022-11-28T03:37:30.107Z,-1.80
2022-11-28T03:40:02.881Z,-1.79
2022-11-28T03:42:36.501Z,-1.79
2022-11-28T03:45:17.240Z,-1.78
2022-11-28T03:47:49.138Z,-1.78
2022-11-28T03:50:22.146Z,-1.77
2022-11-28T03:52:59.433Z,-1.78
2022-11-28T03:55:45.633Z,-1.80
2022-11-28T03:58:37.037Z,-1.83
2022-11-28T04:01:27.013Z,-1.82
2022-11-28T04:03:59.863Z,-1.81
2022-11-28T04:06:33.313Z,-1.80
2022-11-28T04:09:13.021Z,-1.81
2022-11-28T04:11:49.646Z,-1.82
2022-11-28T04:14:26.664Z,-1.84
2022-11-28T04:17:33.444Z,-1.87
2022-11-28T04:20:12.416Z,-1.90
2022-11-28T04:22:51.196Z,-1.92
2022-11-28T04:25:22.296Z,-1.94
2022-11-28T04:28:02.994Z,-1.94
2022-11-28T04:30:31.886Z,-1.94
2022-11-28T04:33:05.916Z,-1.94
2022-11-28T04:35:38.135Z,-1.92
2022-11-28T04:38:09.530Z,-1.90
2022-11-28T04:40:44.559Z,-1.89
2022-11-28T04:43:20.438Z,-1.88
2022-11-28T04:45:56.205Z,-1.86
2022-11-28T04:48:24.342Z,-1.87
2022-11-28T04:51:09.214Z,-1.87
2022-11-28T04:54:02.528Z,-1.87
2022-11-28T04:56:47.455Z,-1.84
2022-11-28T04:59:16.228Z,-1.85
2022-11-28T05:01:47.421Z,-1.90
2022-11-28T05:04:17.325Z,-1.94
2022-11-28T05:06:45.702Z,-1.98
2022-11-28T05:09:14.468Z,-2.01
2022-11-28T05:11:44.739Z,-2.04
2022-11-28T05:14:12.654Z,-2.06
2022-11-28T05:16:40.995Z,-2.07
2022-11-28T05:19:09.208Z,-2.07
2022-11-28T05:21:37.179Z,-2.07
2022-11-28T05:24:05.849Z,-2.06
2022-11-28T05:26:35.569Z,-2.07
2022-11-28T05:29:04.259Z,-2.07
2022-11-28T05:31:32.452Z,-2.08
2022-11-28T05:34:00.648Z,-2.06
2022-11-28T05:36:28.684Z,-2.03
2022-11-28T05:38:56.859Z,-2.03
2022-11-28T05:41:30.454Z,-2.03
2022-11-28T05:43:59.558Z,-2.03
2022-11-28T05:46:28.557Z,-2.07
2022-11-28T05:48:56.925Z,-2.10
2022-11-28T05:51:25.005Z,-2.12
2022-11-28T05:53:53.176Z,-2.14
2022-11-28T05:56:23.495Z,-2.17
2022-11-28T05:58:54.497Z,-2.20
2022-11-28T06:01:25.895Z,-2.21
2022-11-28T06:04:00.057Z,-2.20
2022-11-28T06:06:33.441Z,-2.20
2022-11-28T06:09:01.817Z,-2.19
2022-11-28T06:11:31.364Z,-2.19
2022-11-28T06:13:59.765Z,-2.15
2022-11-28T06:16:30.117Z,-2.14
2022-11-28T06:19:01.017Z,-2.13
2022-11-28T06:21:30.033Z,-2.13
2022-11-28T06:23:59.539Z,-2.10
2022-11-28T06:26:28.940Z,-2.08
2022-11-28T06:28:57.319Z,-2.08
2022-11-28T06:31:28.707Z,-2.07
2022-11-28T06:33:58.375Z,-2.06
2022-11-28T06:36:26.856Z,-2.09
2022-11-28T06:38:54.933Z,-2.11
2022-11-28T06:41:23.225Z,-2.10
2022-11-28T06:43:51.588Z,-2.09
2022-11-28T06:46:21.700Z,-2.07
2022-11-28T06:48:51.928Z,-2.06
2022-11-28T06:51:20.817Z,-2.03
2022-11-28T06:53:50.020Z,-2.01
2022-11-28T06:56:19.969Z,-1.95
2022-11-28T06:58:53.517Z,-1.91
2022-11-28T07:01:23.369Z,-1.88
2022-11-28T07:03:54.558Z,-1.85
2022-11-28T07:06:25.100Z,-1.80
2022-11-28T07:08:53.821Z,-1.77
2022-11-28T07:11:25.013Z,-1.73
2022-11-28T07:13:54.663Z,-1.71
2022-11-28T07:16:25.546Z,-1.66
2022-11-28T07:18:56.219Z,-1.62
2022-11-28T07:21:24.319Z,-1.60
2022-11-28T07:23:52.592Z,-1.50
2022-11-28T07:26:21.887Z,-1.43
2022-11-28T07:28:51.365Z,-1.45
2022-11-28T07:31:22.595Z,-1.45
2022-11-28T07:33:51.438Z,-1.42
2022-11-28T07:36:25.537Z,-1.38
2022-11-28T07:38:56.684Z,-1.33
2022-11-28T07:41:26.950Z,-1.29
2022-11-28T07:43:57.509Z,-1.23
2022-11-28T07:46:26.643Z,-1.17
2022-11-28T07:48:55.319Z,-1.13
2022-11-28T07:51:32.134Z,-1.08
2022-11-28T07:54:01.921Z,-1.03
2022-11-28T07:59:22.029Z,-0.93
2022-11-28T08:01:50.391Z,-0.89
2022-11-28T08:04:18.349Z,-0.84
2022-11-28T08:06:46.375Z,-0.79
2022-11-28T08:09:14.620Z,-0.74
2022-11-28T08:11:43.201Z,-0.68
2022-11-28T08:14:11.696Z,-0.64
2022-11-28T08:16:44.933Z,-0.60
2022-11-28T08:19:13.257Z,-0.57
2022-11-28T08:21:42.152Z,-0.56
2022-11-28T08:24:11.649Z,-0.52
2022-11-28T08:26:39.635Z,-0.45
2022-11-28T08:29:08.310Z,-0.38
2022-11-28T08:31:38.597Z,-0.33
2022-11-28T08:34:09.982Z,-0.28
2022-11-28T08:36:38.001Z,-0.22
2022-11-28T08:39:23.519Z,-0.16
2022-11-28T08:41:59.859Z,-0.11
2022-11-28T08:44:30.285Z,-0.05
2022-11-28T08:46:59.120Z,-0.03
2022-11-28T08:49:27.094Z,0.04
2022-11-28T08:51:55.170Z,0.09
2022-11-28T08:54:23.386Z,0.12
2022-11-28T08:56:51.409Z,0.17
2022-11-28T08:59:19.385Z,0.22
2022-11-28T09:01:47.577Z,0.25
2022-11-28T09:04:15.714Z,0.30
2022-11-28T09:06:43.831Z,0.34
2022-11-28T09:09:11.996Z,0.42
2022-11-28T09:11:39.944Z,0.47
2022-11-28T09:14:08.547Z,0.54
2022-11-28T09:16:39.309Z,0.62
2022-11-28T09:19:09.400Z,0.65
2022-11-28T09:21:37.921Z,0.69
2022-11-28T09:24:06.514Z,0.72
2022-11-28T09:26:34.474Z,0.75
2022-11-28T09:29:02.291Z,0.82
2022-11-28T09:31:30.253Z,0.85
2022-11-28T09:33:58.268Z,0.88
2022-11-28T09:36:28.601Z,0.93
2022-11-28T09:38:56.834Z,1.00
2022-11-28T09:41:27.347Z,1.08
2022-11-28T09:44:29.376Z,1.16
2022-11-28T09:47:03.925Z,1.25
2022-11-28T09:49:45.565Z,1.32
2022-11-28T09:52:32.437Z,1.37
2022-11-28T09:55:14.392Z,1.44
2022-11-28T09:57:53.648Z,1.51
2022-11-28T10:00:28.927Z,1.58
2022-11-28T10:03:09.389Z,1.63
2022-11-28T10:06:11.065Z,1.63
2022-11-28T10:09:03.470Z,1.68
2022-11-28T10:11:37.270Z,1.77
2022-11-28T10:14:40.466Z,1.83
2022-11-28T10:17:46.153Z,1.94
2022-11-28T10:20:21.460Z,2.04
2022-11-28T10:23:07.842Z,2.11
2022-11-28T10:25:44.372Z,2.17
2022-11-28T10:28:23.276Z,2.27
2022-11-28T10:30:59.918Z,2.39
2022-11-28T10:33:40.219Z,2.46
2022-11-28T10:36:17.220Z,2.50
2022-11-28T10:38:45.296Z,2.50
2022-11-28T10:41:32.196Z,2.53
2022-11-28T10:44:27.508Z,2.58
2022-11-28T10:47:07.146Z,2.66
2022-11-28T10:49:56.417Z,2.75
2022-11-28T10:52:36.070Z,2.76
2022-11-28T10:55:27.977Z,2.81
2022-11-28T10:58:21.532Z,2.93
2022-11-28T11:00:55.097Z,2.97
2022-11-28T11:03:29.953Z,2.98
2022-11-28T11:05:58.420Z,3.00
2022-11-28T11:08:29.528Z,3.00
2022-11-28T11:11:34.677Z,3.01
2022-11-28T11:14:07.307Z,3.05
2022-11-28T11:16:53.897Z,3.08
2022-11-28T11:19:37.476Z,3.11
2022-11-28T11:22:24.843Z,3.14
2022-11-28T11:25:15.877Z,3.20
2022-11-28T11:27:50.920Z,3.25
2022-11-28T11:30:40.252Z,3.30
2022-11-28T11:33:17.100Z,3.37
2022-11-28T11:35:49.428Z,3.39
2022-11-28T11:38:20.413Z,3.39
2022-11-28T11:40:49.938Z,3.44
2022-11-28T11:43:33.270Z,3.50
2022-11-28T11:46:17.368Z,3.55
2022-11-28T11:48:47.687Z,3.56
2022-11-28T11:51:36.611Z,3.58
2022-11-28T11:54:24.425Z,3.63
2022-11-28T11:57:05.828Z,3.64
2022-11-28T11:59:56.876Z,3.70
2022-11-28T12:02:33.545Z,3.71
2022-11-28T12:05:10.215Z,3.71
2022-11-28T12:07:56.521Z,3.74
2022-11-28T12:10:27.818Z,3.75
2022-11-28T12:12:56.650Z,3.74
2022-11-28T12:15:33.788Z,3.72
2022-11-28T12:18:13.742Z,3.74
2022-11-28T12:20:56.269Z,3.75
2022-11-28T12:23:30.161Z,3.72
2022-11-28T12:26:10.799Z,3.74
2022-11-28T12:28:57.541Z,3.66
2022-11-28T12:31:53.902Z,3.64
2022-11-28T12:35:02.473Z,3.61
2022-11-28T12:38:10.821Z,3.57
2022-11-28T12:41:10.785Z,3.51
2022-11-28T12:44:11.689Z,3.49
2022-11-28T12:46:48.509Z,3.44
2022-11-28T12:49:17.664Z,3.42
2022-11-28T12:52:13.929Z,3.42
2022-11-28T12:55:06.941Z,3.41
2022-11-28T12:57:53.850Z,3.42
2022-11-28T13:00:26.213Z,3.41
2022-11-28T13:03:24.765Z,3.40
2022-11-28T13:06:11.741Z,3.40
2022-11-28T13:08:48.724Z,3.41
2022-11-28T13:11:27.177Z,3.41
2022-11-28T13:14:03.185Z,3.41
2022-11-28T13:16:31.298Z,3.42
2022-11-28T13:19:32.096Z,3.42
2022-11-28T13:22:25.631Z,3.42
2022-11-28T13:25:00.830Z,3.44
2022-11-28T13:27:36.414Z,3.41
2022-11-28T13:30:24.669Z,3.40
2022-11-28T13:33:23.941Z,3.38
2022-11-28T13:35:53.365Z,3.35
2022-11-28T13:38:36.597Z,3.32
2022-11-28T13:41:59.494Z,3.28
2022-11-28T13:44:28.825Z,3.25
2022-11-28T13:46:56.933Z,3.21
2022-11-28T13:49:27.084Z,3.18
2022-11-28T13:52:20.350Z,3.17
2022-11-28T13:54:50.843Z,3.15
2022-11-28T13:57:29.211Z,3.12
2022-11-28T14:00:02.051Z,3.08
2022-11-28T14:02:48.308Z,3.01
2022-11-28T14:05:41.586Z,2.95
2022-11-28T14:08:28.445Z,2.89
2022-11-28T14:11:21.433Z,2.84
2022-11-28T14:14:21.800Z,2.78
2022-11-28T14:17:13.830Z,2.69
2022-11-28T14:20:01.012Z,2.62
2022-11-28T14:22:41.219Z,2.56
2022-11-28T14:25:28.776Z,2.49
2022-11-28T14:28:07.767Z,2.41
2022-11-28T14:30:39.978Z,2.33
2022-11-28T14:33:26.866Z,2.26
2022-11-28T14:35:54.958Z,2.22
2022-11-28T14:38:33.875Z,2.17
2022-11-28T14:41:15.407Z,2.10
2022-11-28T14:43:46.343Z,2.06
2022-11-28T14:46:27.048Z,2.02
2022-11-28T14:48:58.646Z,1.97
2022-11-28T14:51:45.659Z,1.91
2022-11-28T14:54:35.999Z,1.87
2022-11-28T14:57:17.039Z,1.82
2022-11-28T14:59:45.955Z,1.76
2022-11-28T15:02:30.884Z,1.70
2022-11-28T15:05:07.885Z,1.63
2022-11-28T15:08:01.573Z,1.59
2022-11-28T15:10:39.651Z,1.53
2022-11-28T15:13:14.078Z,1.47
2022-11-28T15:15:49.856Z,1.42
2022-11-28T15:18:20.602Z,1.39
2022-11-28T15:20:58.995Z,1.34
2022-11-28T15:23:35.599Z,1.30
2022-11-28T15:26:03.627Z,1.27
2022-11-28T15:28:35.624Z,1.22
2022-11-28T15:31:05.958Z,1.18
2022-11-28T15:33:34.803Z,1.12
2022-11-28T15:36:12.521Z,1.07
2022-11-28T15:38:43.045Z,1.01
2022-11-28T15:41:11.501Z,0.99
2022-11-28T15:43:45.746Z,0.95
2022-11-28T15:46:32.448Z,0.92
2022-11-28T15:49:05.330Z,0.91
2022-11-28T15:51:35.741Z,0.88
2022-11-28T15:54:26.751Z,0.85
2022-11-28T15:56:59.009Z,0.82
2022-11-28T15:59:28.635Z,0.79
2022-11-28T16:02:10.766Z,0.76
2022-11-28T16:04:39.626Z,0.73
2022-11-28T16:07:14.874Z,0.71
2022-11-28T16:10:06.288Z,0.70
2022-11-28T16:12:34.364Z,0.67
2022-11-28T16:15:04.068Z,0.65
2022-11-28T16:17:34.092Z,0.63
2022-11-28T16:20:03.288Z,0.61
2022-11-28T16:22:37.073Z,0.57
2022-11-28T16:25:33.010Z,0.54
2022-11-28T16:28:01.291Z,0.49
2022-11-28T16:30:36.757Z,0.46
2022-11-28T16:33:38.050Z,0.44
2022-11-28T16:36:15.157Z,0.44
2022-11-28T16:38:44.472Z,0.43
2022-11-28T16:41:23.097Z,0.41
2022-11-28T16:44:07.280Z,0.40
2022-11-28T16:46:39.308Z,0.38
2022-11-28T16:49:37.670Z,0.36
2022-11-28T16:52:20.946Z,0.36
2022-11-28T16:54:53.611Z,0.36
2022-11-28T16:57:22.489Z,0.37
2022-11-28T16:59:54.638Z,0.37
2022-11-28T17:02:26.882Z,0.38
2022-11-28T17:04:55.103Z,0.37
2022-11-28T17:07:24.321Z,0.38
2022-11-28T17:09:52.687Z,0.42
2022-11-28T17:12:34.788Z,0.48
2022-11-28T17:15:03.777Z,0.54
2022-11-28T17:17:32.075Z,0.61
2022-11-28T17:20:00.444Z,0.71
2022-11-28T17:22:43.357Z,0.81
2022-11-28T17:25:16.712Z,0.92
2022-11-28T17:27:45.154Z,1.00
2022-11-28T17:30:15.115Z,1.08
2022-11-28T17:32:42.991Z,1.15
2022-11-28T17:35:18.789Z,1.21
2022-11-28T17:37:47.562Z,1.29
2022-11-28T17:40:34.060Z,1.36
2022-11-28T17:43:03.250Z,1.42
2022-11-28T17:45:35.074Z,1.49
2022-11-28T17:48:03.455Z,1.52
2022-11-28T17:50:31.891Z,1.56
2022-11-28T17:53:00.001Z,1.60
2022-11-28T17:55:29.560Z,1.63
2022-11-28T17:57:57.427Z,1.67
2022-11-28T18:00:25.711Z,1.71
2022-11-28T18:02:54.605Z,1.74
2022-11-28T18:05:22.977Z,1.76
2022-11-28T18:07:51.173Z,1.80
2022-11-28T18:10:19.121Z,1.83
2022-11-28T18:12:46.967Z,1.86
2022-11-28T18:15:15.178Z,1.87
2022-11-28T18:17:43.240Z,1.89
2022-11-28T18:20:12.133Z,1.89
2022-11-28T18:22:40.237Z,1.93
2022-11-28T18:25:09.530Z,1.96
2022-11-28T18:27:37.496Z,1.98
2022-11-28T18:30:06.790Z,2.01
2022-11-28T18:32:35.156Z,2.04
2022-11-28T18:35:03.426Z,2.07
2022-11-28T18:37:31.321Z,2.08
2022-11-28T18:39:59.422Z,2.11
2022-11-28T18:42:27.957Z,2.15
2022-11-28T18:44:56.235Z,2.16
2022-11-28T18:47:26.187Z,2.17
2022-11-28T18:49:54.458Z,2.17
2022-11-28T18:52:23.010Z,2.21
2022-11-28T18:54:51.574Z,2.23
2022-11-28T18:57:21.914Z,2.23
2022-11-28T18:59:54.765Z,2.23
2022-11-28T19:02:24.009Z,2.25
2022-11-28T19:04:53.416Z,2.30
2022-11-28T19:07:22.965Z,2.31
2022-11-28T19:09:51.768Z,2.35
2022-11-28T19:12:20.595Z,2.36
2022-11-28T19:14:48.455Z,2.36
2022-11-28T19:17:16.821Z,2.37
2022-11-28T19:19:45.203Z,2.39
2022-11-28T19:22:13.697Z,2.39
2022-11-28T19:24:41.775Z,2.41
2022-11-28T19:27:14.311Z,2.41
2022-11-28T19:29:43.809Z,2.41
2022-11-28T19:32:12.775Z,2.40
2022-11-28T19:34:41.469Z,2.42
2022-11-28T19:37:09.717Z,2.40
2022-11-28T19:39:37.875Z,2.40
2022-11-28T19:42:07.327Z,2.40
2022-11-28T19:44:35.905Z,2.41
2022-11-28T19:47:06.233Z,2.41
2022-11-28T19:49:34.167Z,2.41
2022-11-28T19:52:02.852Z,2.39
2022-11-28T19:54:30.951Z,2.40
2022-11-28T19:56:59.130Z,2.40
2022-11-28T19:59:27.703Z,2.40
2022-11-28T20:01:55.801Z,2.40
2022-11-28T20:04:24.346Z,2.40
2022-11-28T20:06:52.520Z,2.42
2022-11-28T20:09:20.489Z,2.44
2022-11-28T20:11:48.970Z,2.46
2022-11-28T20:14:19.049Z,2.44
2022-11-28T20:16:47.509Z,2.44
2022-11-28T20:19:18.006Z,2.45
2022-11-28T20:21:46.740Z,2.45
2022-11-28T20:24:16.067Z,2.45
2022-11-28T20:26:46.929Z,2.45
2022-11-28T20:29:16.742Z,2.46
2022-11-28T20:31:47.668Z,2.46
2022-11-28T20:34:19.530Z,2.48
2022-11-28T20:36:53.790Z,2.48
2022-11-28T20:39:21.727Z,2.48
2022-11-28T20:41:49.895Z,2.49
2022-11-28T20:44:19.040Z,2.48
2022-11-28T20:46:47.371Z,2.46
2022-11-28T20:49:16.076Z,2.43
2022-11-28T20:51:44.239Z,2.43
2022-11-28T20:54:13.944Z,2.43
2022-11-28T20:57:19.210Z,2.40
2022-11-28T20:59:32.931Z,2.39
2022-11-28T21:02:01.391Z,2.39
2022-11-28T21:04:29.272Z,2.40
2022-11-28T21:06:57.142Z,2.42
2022-11-28T21:09:25.423Z,2.43
2022-11-28T21:11:58.980Z,2.42
2022-11-28T21:14:29.424Z,2.43
2022-11-28T21:16:58.905Z,2.41
2022-11-28T21:19:27.368Z,2.39
2022-11-28T21:21:55.348Z,2.36
2022-11-28T21:24:23.381Z,2.36
2022-11-28T21:26:54.516Z,2.35
2022-11-28T21:29:24.828Z,2.34
2022-11-28T21:31:53.434Z,2.34
2022-11-28T21:34:22.560Z,2.34
2022-11-28T21:36:50.780Z,2.36
2022-11-28T21:39:20.626Z,2.37
2022-11-28T21:41:49.007Z,2.38
2022-11-28T21:44:17.087Z,2.40
2022-11-28T21:46:45.958Z,2.41
2022-11-28T21:49:14.163Z,2.43
2022-11-28T21:51:42.308Z,2.43
2022-11-28T21:54:11.504Z,2.41
2022-11-28T21:56:39.687Z,2.39
2022-11-28T21:59:08.022Z,2.36
2022-11-28T22:01:36.190Z,2.40
2022-11-28T22:04:05.643Z,2.38
2022-11-28T22:06:34.235Z,2.38
2022-11-28T22:09:08.996Z,2.39
2022-11-28T22:11:39.686Z,2.41
2022-11-28T22:14:08.201Z,2.40
2022-11-28T22:16:37.373Z,2.40
2022-11-28T22:19:05.726Z,2.43
2022-11-28T22:22:08.428Z,2.50
2022-11-28T22:24:37.386Z,2.50
2022-11-28T22:27:06.215Z,2.51
2022-11-28T22:29:35.139Z,2.51
2022-11-28T22:32:04.529Z,2.53
2022-11-28T22:34:37.045Z,2.59
2022-11-28T22:37:07.694Z,2.57
2022-11-28T22:39:35.745Z,2.56
2022-11-28T22:42:03.869Z,2.56
2022-11-28T22:44:32.554Z,2.56
2022-11-28T22:47:00.411Z,2.56
2022-11-28T22:49:29.614Z,2.59
2022-11-28T22:51:57.795Z,2.64
2022-11-28T22:54:26.065Z,2.65
2022-11-28T22:56:55.374Z,2.64
2022-11-28T22:59:23.750Z,2.63
2022-11-28T23:01:52.062Z,2.60
2022-11-28T23:04:20.418Z,2.58
2022-11-28T23:06:49.403Z,2.58
2022-11-28T23:09:19.011Z,2.60
2022-11-28T23:11:46.984Z,2.63
2022-11-28T23:14:15.662Z,2.65
2022-11-28T23:16:45.169Z,2.66
2022-11-28T23:19:16.830Z,2.68
2022-11-28T23:21:48.133Z,2.67
2022-11-28T23:24:20.071Z,2.68
2022-11-28T23:26:49.163Z,2.67
2022-11-28T23:29:18.016Z,2.62
2022-11-28T23:31:47.076Z,2.59
2022-11-28T23:34:16.018Z,2.60
2022-11-28T23:36:46.650Z,2.59
2022-11-28T23:39:17.214Z,2.61
2022-11-28T23:41:45.967Z,2.62
2022-11-28T23:44:15.336Z,2.62
2022-11-28T23:46:44.262Z,2.62
2022-11-28T23:49:12.762Z,2.63
2022-11-28T23:51:41.629Z,2.66
2022-11-28T23:54:11.193Z,2.66
2022-11-28T23:56:41.674Z,2.66
2022-11-28T23:59:13.329Z,2.65
